Time;durP1;ratioP1;P1;durP2;ratioP2;P2;SDS_P1;SDS_P2;PMS_P1;PMS_P2;Temp;Humidity;BMP_temperature;BMP_pressure;BME280_temperature;BME280_humidity;BME280_pressure;Samples;Min_cycle;Max_cycle;Signal;HPM_P1;HPM_P2
2022/06/21 00:00:24;;;;;;;10.05;7.20;;;;;;;16.77;76.54;93871.42;1709920;83;21017;-49
2022/06/21 00:03:05;;;;;;;9.35;6.97;;;;;;;16.75;76.71;93866.27;1688422;85;21015;-50
2022/06/21 00:05:37;;;;;;;14.00;8.15;;;;;;;16.73;76.72;93861.86;1729799;82;21491;-50
2022/06/21 00:08:07;;;;;;;16.48;9.25;;;;;;;16.68;76.67;93856.42;1688566;85;22061;-50
2022/06/21 00:10:34;;;;;;;16.42;8.40;;;;;;;16.66;76.86;93863.13;1730095;83;21047;-48
2022/06/21 00:13:08;;;;;;;9.85;7.95;;;;;;;16.63;77.03;93859.20;1688508;85;21054;-49
2022/06/21 00:15:36;;;;;;;11.08;6.78;;;;;;;16.61;77.12;93854.80;1730311;83;21031;-49
2022/06/21 00:18:05;;;;;;;7.40;6.58;;;;;;;16.58;76.83;93848.88;1688394;85;21581;-49
2022/06/21 00:20:32;;;;;;;12.73;7.30;;;;;;;16.50;76.60;93855.56;1730225;83;21300;-49
2022/06/21 00:23:01;;;;;;;9.48;7.58;;;;;;;16.45;77.00;93850.02;1729689;83;20960;-50
2022/06/21 00:25:28;;;;;;;14.78;6.95;;;;;;;16.44;77.03;93854.83;1729776;83;20971;-50
2022/06/21 00:27:56;;;;;;;8.35;6.83;;;;;;;16.42;76.93;93845.48;1729836;83;21012;-49
2022/06/21 00:30:24;;;;;;;11.12;7.70;;;;;;;16.38;76.79;93852.66;1730030;83;21043;-50
2022/06/21 00:32:54;;;;;;;11.08;6.83;;;;;;;16.35;76.99;93845.35;1688583;85;21590;-50
2022/06/21 00:35:23;;;;;;;17.67;8.60;;;;;;;16.36;77.17;93838.53;1730202;82;21546;-50
2022/06/21 00:37:52;;;;;;;10.43;7.28;;;;;;;16.37;77.94;93837.27;1688898;85;21061;-48
2022/06/21 00:40:27;;;;;;;13.70;8.00;;;;;;;16.36;77.77;93835.76;1730042;83;20972;-51
2022/06/21 00:43:03;;;;;;;9.08;7.47;;;;;;;16.32;77.78;93837.23;1729910;83;21051;-51
2022/06/21 00:45:35;;;;;;;9.68;7.28;;;;;;;16.26;77.96;93830.20;1728822;82;22360;-50
2022/06/21 00:48:17;;;;;;;9.33;6.70;;;;;;;16.21;78.00;93830.32;1729523;82;21114;-51
2022/06/21 00:50:59;;;;;;;8.57;7.00;;;;;;;16.17;78.42;93829.83;1729915;82;21011;-49
2022/06/21 00:53:37;;;;;;;10.55;7.00;;;;;;;16.11;79.07;93822.11;1688434;85;20974;-47
2022/06/21 00:56:27;;;;;;;12.43;7.30;;;;;;;16.06;79.42;93815.94;1716285;83;21055;-50
2022/06/21 00:58:55;;;;;;;16.23;9.43;;;;;;;16.05;79.79;93813.66;1709851;83;21218;-51
2022/06/21 01:01:28;;;;;;;12.03;9.03;;;;;;;16.00;80.40;93813.80;1688300;85;21051;-50
2022/06/21 01:04:26;;;;;;;10.05;7.97;;;;;;;15.98;80.65;93808.62;1729775;83;20999;-49
2022/06/21 01:06:56;;;;;;;15.60;9.70;;;;;;;15.94;80.90;93815.06;1727543;82;21535;-49
2022/06/21 01:09:39;;;;;;;15.63;9.13;;;;;;;15.85;80.99;93807.73;1688640;85;21006;-52
2022/06/21 01:12:21;;;;;;;12.18;8.33;;;;;;;15.81;80.90;93804.46;1729727;83;21270;-50
2022/06/21 01:15:00;;;;;;;10.48;7.20;;;;;;;15.79;81.10;93797.28;1709073;83;21443;-50
2022/06/21 01:17:29;;;;;;;12.82;8.18;;;;;;;15.81;81.17;93787.83;1729580;82;21444;-49
2022/06/21 01:20:10;;;;;;;12.95;8.48;;;;;;;15.84;81.33;93792.36;1688362;85;20970;-49
2022/06/21 01:23:11;;;;;;;13.72;9.58;;;;;;;15.90;81.20;93788.95;1729627;83;20995;-49
2022/06/21 01:26:07;;;;;;;14.70;9.50;;;;;;;15.92;81.29;93793.36;1709162;82;21164;-49
2022/06/21 01:28:35;;;;;;;14.60;8.53;;;;;;;15.88;81.30;93781.02;1717050;83;20999;-50
2022/06/21 01:31:03;;;;;;;10.50;8.03;;;;;;;15.83;81.37;93781.75;1729734;82;21035;-49
2022/06/21 01:33:35;;;;;;;21.55;9.18;;;;;;;15.80;81.48;93779.99;1688283;85;20990;-49
2022/06/21 01:36:26;;;;;;;13.10;8.95;;;;;;;15.80;81.32;93774.45;1709498;82;21444;-49
2022/06/21 01:38:59;;;;;;;11.38;8.48;;;;;;;15.77;81.09;93778.23;1688784;85;21205;-49
2022/06/21 01:41:31;;;;;;;13.55;8.95;;;;;;;15.72;81.20;93775.58;1729823;83;21112;-50
2022/06/21 01:44:01;;;;;;;9.40;7.75;;;;;;;15.71;81.09;93774.06;1688566;85;21010;-49
2022/06/21 01:46:31;;;;;;;13.28;8.45;;;;;;;15.64;80.98;93775.95;1687211;85;21073;-49
2022/06/21 01:49:06;;;;;;;13.75;8.45;;;;;;;15.60;81.52;93767.75;1730103;83;21429;-50
2022/06/21 01:51:51;;;;;;;10.53;7.97;;;;;;;15.59;82.36;93771.79;1687389;85;21321;-49
2022/06/21 01:54:20;;;;;;;16.48;9.43;;;;;;;15.61;82.67;93765.11;1686598;85;20959;-48
2022/06/21 01:56:48;;;;;;;18.05;9.40;;;;;;;15.56;82.77;93755.52;1686512;85;20975;-50
2022/06/21 01:59:26;;;;;;;9.98;8.80;;;;;;;15.52;82.61;93760.56;1727451;82;21424;-50
2022/06/21 02:02:01;;;;;;;12.43;8.83;;;;;;;15.50;82.49;93755.38;1727409;83;21047;-50
2022/06/21 02:04:33;;;;;;;17.23;8.30;;;;;;;15.50;82.61;93759.53;1687144;85;21299;-50
2022/06/21 02:07:04;;;;;;;;;;;;;;;15.48;82.54;93755.12;1688711;85;21015;-51
2022/06/21 02:09:42;;;;;;;22.95;9.13;;;;;;;15.41;82.54;93744.55;1727692;83;20136;-50
2022/06/21 02:12:12;;;;;;;10.70;8.35;;;;;;;15.37;82.81;93752.36;1685601;85;21023;-50
2022/06/21 02:14:47;;;;;;;10.90;8.33;;;;;;;15.36;82.53;93747.43;1727868;83;20948;-50
2022/06/21 02:17:34;;;;;;;14.70;8.58;;;;;;;15.34;82.65;93745.80;1727180;82;22196;-49
2022/06/21 02:20:19;;;;;;;11.78;8.28;;;;;;;15.35;82.52;93746.56;1727799;83;21074;-49
2022/06/21 02:22:48;;;;;;;9.48;8.20;;;;;;;15.33;82.47;93735.97;1727576;83;20955;-49
2022/06/21 02:25:24;;;;;;;10.50;8.63;;;;;;;15.30;82.65;93735.59;1686451;85;20947;-50
2022/06/21 02:27:55;;;;;;;9.33;8.00;;;;;;;15.31;82.70;93738.48;1727464;83;21000;-49
2022/06/21 02:30:25;;;;;;;11.20;7.80;;;;;;;15.35;82.57;93732.06;1727395;83;21170;-49
2022/06/21 02:32:53;;;;;;;12.13;8.20;;;;;;;15.37;82.20;93732.31;1686276;85;21058;-49
2022/06/21 02:35:35;;;;;;;10.55;8.83;;;;;;;15.38;82.06;93731.05;1686690;85;20971;-49
2022/06/21 02:38:06;;;;;;;14.23;9.25;;;;;;;15.38;82.15;93743.53;1684610;85;21093;-50
2022/06/21 02:40:39;;;;;;;15.40;7.90;;;;;;;15.33;82.45;93740.12;1728057;83;21027;-49
2022/06/21 02:43:14;;;;;;;13.68;8.20;;;;;;;15.29;82.67;93731.31;1727523;83;21119;-50
2022/06/21 02:45:54;;;;;;;9.48;8.33;;;;;;;15.27;82.84;93730.25;1686634;85;20967;-49
2022/06/21 02:48:27;;;;;;;11.83;8.58;;;;;;;15.26;82.91;93723.97;1686272;85;21093;-48
2022/06/21 02:50:59;;;;;;;15.23;8.45;;;;;;;15.24;83.08;93722.95;1727471;83;20984;-50
2022/06/21 02:53:35;;;;;;;11.22;7.87;;;;;;;15.26;83.20;93714.27;1655465;86;21016;-49
2022/06/21 02:56:11;;;;;;;10.95;7.53;;;;;;;15.26;82.94;93710.12;1724793;83;21151;-49
2022/06/21 02:58:43;;;;;;;8.88;7.97;;;;;;;15.28;82.88;93699.28;1655209;86;20976;-49
2022/06/21 03:01:31;;;;;;;10.82;8.05;;;;;;;15.28;82.72;93685.43;1706176;83;20960;-50
2022/06/21 03:03:59;;;;;;;11.93;8.53;;;;;;;15.26;82.57;93687.95;1724804;83;20960;-50
2022/06/21 03:06:26;;;;;;;10.48;8.75;;;;;;;15.25;82.62;93696.14;1682859;85;21067;-50
2022/06/21 03:09:06;;;;;;;10.85;7.78;;;;;;;15.27;82.91;93690.84;1724751;83;22116;-52
2022/06/21 03:11:39;;;;;;;12.23;8.00;;;;;;;15.31;82.81;93688.61;1655158;86;21007;-50
2022/06/21 03:14:11;;;;;;;12.13;8.73;;;;;;;15.33;82.79;93680.55;1724796;83;21445;-49
2022/06/21 03:16:39;;;;;;;12.55;9.10;;;;;;;15.33;82.83;93681.19;1724979;83;20956;-50
2022/06/21 03:19:23;;;;;;;13.95;8.78;;;;;;;15.30;82.89;93682.17;1655477;86;21591;-49
2022/06/21 03:21:52;;;;;;;18.52;9.55;;;;;;;15.21;83.16;93685.91;1724942;83;21285;-50
2022/06/21 03:24:21;;;;;;;13.48;9.00;;;;;;;15.17;83.60;93684.02;1655377;86;21106;-49
2022/06/21 03:27:05;;;;;;;9.33;8.43;;;;;;;15.19;83.85;93678.73;1724917;83;21027;-49
2022/06/21 03:29:32;;;;;;;10.70;8.90;;;;;;;15.25;83.79;93685.05;1724875;83;21062;-49
2022/06/21 03:32:01;;;;;;;12.37;8.60;;;;;;;15.31;83.54;93673.98;1655471;86;20976;-50
2022/06/21 03:34:30;;;;;;;12.53;7.90;;;;;;;15.36;83.43;93682.30;1706445;83;21810;-50
2022/06/21 03:37:00;;;;;;;11.00;8.00;;;;;;;15.44;83.20;93668.09;1706344;83;21095;-49
2022/06/21 03:42:17;;;;;;;17.40;8.45;;;;;;;15.61;82.89;93663.30;1646351;87;21007;-49
2022/06/21 03:44:56;;;;;;;10.20;8.78;;;;;;;15.65;82.75;93664.41;1701459;83;20999;-50
2022/06/21 03:47:40;;;;;;;12.30;8.90;;;;;;;15.67;82.46;93669.58;1655400;86;21890;-49
2022/06/21 03:50:18;;;;;;;13.95;9.08;;;;;;;15.68;82.47;93664.16;1724888;83;20955;-49
2022/06/21 03:52:59;;;;;;;13.18;7.33;;;;;;;15.72;82.53;93667.42;1645088;86;21070;-48
2022/06/21 03:55:50;;;;;;;18.95;9.10;;;;;;;15.80;82.51;93665.67;1685331;85;20991;-50
2022/06/21 03:58:58;;;;;;;16.12;9.30;;;;;;;15.85;82.44;93657.19;1657407;86;20971;-49
2022/06/21 04:01:56;;;;;;;20.00;9.98;;;;;;;15.87;82.39;93663.75;1657251;85;21334;-50
2022/06/21 04:04:35;;;;;;;15.03;9.18;;;;;;;15.93;82.30;93664.49;1684641;84;21007;-50
2022/06/21 04:07:24;;;;;;;20.75;9.00;;;;;;;16.02;82.18;93657.92;1657652;86;21092;-50
2022/06/21 04:10:03;;;;;;;12.68;9.20;;;;;;;16.15;81.85;93656.76;1684680;85;20971;-49
2022/06/21 04:12:43;;;;;;;11.90;8.43;;;;;;;16.28;81.51;93657.72;1684763;85;21083;-50
2022/06/21 04:15:15;;;;;;;13.10;8.50;;;;;;;16.41;81.04;93653.80;1657271;86;21155;-53
2022/06/21 04:18:04;;;;;;;18.75;8.95;;;;;;;16.52;80.67;93648.22;1684653;84;21072;-53
2022/06/21 04:20:43;;;;;;;16.93;8.65;;;;;;;16.68;80.56;93643.19;1684886;85;21542;-48
2022/06/21 04:23:29;;;;;;;11.63;8.33;;;;;;;17.05;79.77;93647.65;1657264;86;20991;-48
2022/06/21 04:26:04;;;;;;;16.25;9.38;;;;;;;17.47;78.83;93636.02;1682329;85;21023;-50
2022/06/21 04:28:53;;;;;;;10.63;7.90;;;;;;;17.84;77.66;93641.77;1684594;85;21038;-49
2022/06/21 04:31:38;;;;;;;22.60;8.80;;;;;;;18.04;76.70;93641.31;1657280;86;21011;-50
2022/06/21 04:34:37;;;;;;;10.82;8.40;;;;;;;18.21;75.25;93644.80;1684766;85;21455;-48
2022/06/21 04:37:24;;;;;;;11.93;7.85;;;;;;;18.36;74.06;93643.77;1684636;85;21071;-50
2022/06/21 04:40:08;;;;;;;10.80;8.13;;;;;;;18.37;73.13;93652.24;1694995;84;21004;-50
2022/06/21 04:43:10;;;;;;;76.82;10.78;;;;;;;18.32;73.05;93640.50;1684694;85;21161;-50
2022/06/21 04:45:48;;;;;;;73.12;11.83;;;;;;;18.33;73.12;93649.00;1654518;85;21687;-50
2022/06/21 04:48:44;;;;;;;13.13;8.93;;;;;;;18.36;73.12;93655.54;1657485;86;21502;-48
2022/06/21 04:51:17;;;;;;;13.22;8.25;;;;;;;18.36;72.89;93654.91;1645920;86;20968;-49
2022/06/21 04:53:55;;;;;;;22.17;9.83;;;;;;;18.33;72.88;93653.80;1685115;85;26574;-53
2022/06/21 04:56:39;;;;;;;31.85;12.60;;;;;;;18.30;72.70;93649.28;1727450;82;21527;-50
2022/06/21 04:59:29;;;;;;;32.30;12.45;;;;;;;18.24;72.89;93653.48;1686376;85;20999;-50
2022/06/21 05:01:57;;;;;;;28.60;12.20;;;;;;;18.21;72.86;93654.54;1727501;83;21008;-51
2022/06/21 05:04:30;;;;;;;24.27;12.10;;;;;;;18.20;73.25;93655.81;1727789;83;21562;-48
2022/06/21 05:07:01;;;;;;;32.15;12.53;;;;;;;18.18;73.49;93662.55;1727556;83;20948;-51
2022/06/21 05:09:30;;;;;;;29.42;13.18;;;;;;;18.18;73.46;93655.47;1686712;85;21128;-50
2022/06/21 05:12:02;;;;;;;21.82;10.95;;;;;;;18.18;73.63;93662.55;1686019;83;20976;-50
2022/06/21 05:14:36;;;;;;;16.80;10.03;;;;;;;18.20;73.65;93661.39;1746197;81;21001;-49
2022/06/21 05:17:04;;;;;;;;;;;;;;;18.22;73.51;93656.67;1709571;82;20987;-49
2022/06/21 05:19:39;;;;;;;28.73;13.38;;;;;;;18.28;73.61;93658.80;1699057;83;20419;-49
2022/06/21 05:22:30;;;;;;;24.15;12.18;;;;;;;18.33;73.69;93646.84;1760962;81;21237;-50
2022/06/21 05:25:00;;;;;;;17.17;10.95;;;;;;;18.39;73.99;93651.08;1697051;83;20986;-50
2022/06/21 05:27:46;;;;;;;25.90;12.13;;;;;;;18.47;73.75;93647.07;1738759;81;21448;-53
2022/06/21 05:30:24;;;;;;;20.27;12.25;;;;;;;18.46;73.56;93639.34;1729573;81;21092;-50
2022/06/21 05:32:58;;;;;;;19.52;11.93;;;;;;;18.50;73.92;93633.48;1706419;82;21101;-51
2022/06/21 05:35:28;;;;;;;21.27;14.07;;;;;;;18.55;74.24;93624.30;1740667;81;21128;-54
2022/06/21 05:38:09;;;;;;;39.03;17.05;;;;;;;18.57;74.18;93626.68;1746660;81;20991;-56
2022/06/21 05:40:53;;;;;;;40.83;20.90;;;;;;;18.62;74.13;93619.54;1699162;83;21891;-56
2022/06/21 05:43:39;;;;;;;41.73;20.70;;;;;;;18.64;74.25;93623.29;1665580;85;21617;-55
2022/06/21 05:46:13;;;;;;;44.77;19.15;;;;;;;18.65;74.05;93639.38;1733500;81;21153;-55
2022/06/21 05:48:42;;;;;;;32.55;14.60;;;;;;;18.58;74.34;93646.30;1703120;83;21363;-55
2022/06/21 05:51:24;;;;;;;28.00;12.45;;;;;;;18.60;74.56;93640.18;1733088;80;21055;-57
2022/06/21 05:53:55;;;;;;;51.58;19.35;;;;;;;18.68;74.00;93650.20;1735042;81;21010;-54
2022/06/21 05:56:24;;;;;;;59.30;23.25;;;;;;;18.75;73.67;93655.20;1748949;80;21049;-53
2022/06/21 05:59:00;;;;;;;51.88;19.37;;;;;;;18.79;73.72;93655.66;1722753;81;21553;-53
2022/06/21 06:02:13;;;;;;;43.92;16.48;;;;;;;18.86;73.74;93650.13;1739554;81;21143;-52
2022/06/21 06:05:01;;;;;;;45.63;20.65;;;;;;;18.93;73.12;93647.49;1748366;80;21570;-51
2022/06/21 06:07:34;;;;;;;46.35;19.52;;;;;;;19.00;73.00;93646.88;1744512;80;21021;-53
2022/06/21 06:10:04;;;;;;;30.88;14.63;;;;;;;19.02;73.15;93635.95;1745344;81;21066;-52
2022/06/21 06:12:44;;;;;;;38.33;14.98;;;;;;;19.12;72.83;93647.47;1733937;81;20967;-51
2022/06/21 06:15:33;;;;;;;33.15;12.82;;;;;;;19.21;72.21;93641.56;1715522;81;21566;-50
2022/06/21 06:18:09;;;;;;;20.65;11.83;;;;;;;19.34;71.86;93635.39;1710210;82;20971;-55
2022/06/21 06:20:42;;;;;;;22.93;12.53;;;;;;;19.56;71.44;93640.62;1749367;80;21086;-54
2022/06/21 06:23:41;;;;;;;30.37;12.60;;;;;;;19.71;69.76;93649.26;1709055;81;21065;-51
2022/06/21 06:26:22;;;;;;;34.73;13.65;;;;;;;19.82;68.78;93650.48;1717227;81;21053;-55
2022/06/21 06:29:00;;;;;;;31.80;14.93;;;;;;;19.93;68.47;93650.94;1710946;81;21150;-54
2022/06/21 06:31:38;;;;;;;26.07;13.65;;;;;;;20.02;68.04;93654.09;1711967;83;21057;-52
2022/06/21 06:34:10;;;;;;;33.92;15.00;;;;;;;20.07;67.91;93653.23;1704966;83;21044;-51
2022/06/21 06:36:45;;;;;;;27.65;13.60;;;;;;;20.07;67.87;93654.64;1707561;81;21067;-55
2022/06/21 06:39:26;;;;;;;35.73;16.65;;;;;;;20.06;67.74;93653.13;1742825;81;21098;-54
2022/06/21 06:42:12;;;;;;;34.33;16.90;;;;;;;20.01;67.53;93659.55;1741617;80;21157;-57
2022/06/21 06:44:44;;;;;;;41.65;19.15;;;;;;;19.94;67.61;93656.62;1715239;81;21044;-52
2022/06/21 06:47:21;;;;;;;39.37;18.77;;;;;;;19.88;68.22;93654.55;1737492;81;21008;-52
2022/06/21 06:49:57;;;;;;;76.20;21.40;;;;;;;19.86;68.33;93664.11;1714846;81;21097;-53
2022/06/21 06:52:33;;;;;;;41.53;20.30;;;;;;;19.82;68.48;93665.06;1733131;80;21027;-56
2022/06/21 06:55:30;;;;;;;50.98;21.10;;;;;;;19.74;68.54;93657.95;1654364;85;21235;-54
2022/06/21 06:58:21;;;;;;;34.78;17.02;;;;;;;19.69;69.08;93659.44;1682554;83;21121;-53
2022/06/21 07:00:57;;;;;;;31.30;13.43;;;;;;;19.69;69.54;93664.39;1701594;82;21119;-53
2022/06/21 07:03:30;;;;;;;33.88;15.88;;;;;;;19.67;69.97;93661.38;1692498;83;21032;-54
2022/06/21 07:06:03;;;;;;;35.43;18.27;;;;;;;19.63;71.59;93659.55;1698105;81;21071;-51
2022/06/21 07:08:51;;;;;;;35.20;21.17;;;;;;;19.60;72.21;93650.82;1708044;82;21260;-52
2022/06/21 07:11:40;;;;;;;46.15;19.52;;;;;;;19.63;72.11;93651.17;1700282;82;21027;-53
2022/06/21 07:14:15;;;;;;;42.78;16.73;;;;;;;19.67;73.16;93665.56;1681325;84;21520;-57
2022/06/21 07:16:44;;;;;;;36.88;15.78;;;;;;;19.70;73.24;93663.10;1680966;83;21112;-51
2022/06/21 07:19:11;;;;;;;52.15;21.33;;;;;;;19.81;73.51;93669.14;1666710;82;21073;-52
2022/06/21 07:21:41;;;;;;;40.98;21.40;;;;;;;19.98;73.38;93664.80;1666733;84;21206;-54
2022/06/21 07:24:16;;;;;;;38.92;18.77;;;;;;;20.13;72.59;93674.09;1691297;82;21027;-53
2022/06/21 07:27:03;;;;;;;31.15;17.15;;;;;;;20.34;72.97;93668.76;1693355;82;21058;-50
2022/06/21 07:29:56;;;;;;;34.30;19.52;;;;;;;20.48;72.97;93673.05;1707491;81;21160;-53
2022/06/21 07:32:39;;;;;;;50.55;26.23;;;;;;;20.52;72.43;93682.63;1704362;82;21046;-51
2022/06/21 07:35:27;;;;;;;68.60;26.90;;;;;;;20.55;72.78;93675.22;1696272;82;21144;-52
2022/06/21 07:38:02;;;;;;;48.48;22.22;;;;;;;20.56;73.14;93671.87;1671387;84;22397;-56
2022/06/21 07:40:34;;;;;;;37.70;22.32;;;;;;;20.68;74.31;93672.40;1652456;84;21101;-58
2022/06/21 07:43:11;;;;;;;;;;;;;;;20.77;75.23;93688.76;1674642;83;21141;-60
2022/06/21 07:45:47;;;;;;;20.43;9.70;;;;;;;20.86;75.69;93686.94;1685756;83;20210;-53
2022/06/21 07:48:40;;;;;;;13.78;8.15;;;;;;;20.89;75.96;93683.09;1687746;83;22282;-53
2022/06/21 07:51:12;;;;;;;7.25;6.17;;;;;;;20.95;76.26;93680.26;1669860;84;21101;-52
2022/06/21 07:54:01;;;;;;;11.10;6.58;;;;;;;21.04;76.17;93672.08;1685128;82;21504;-52
2022/06/21 07:56:44;;;;;;;8.05;6.03;;;;;;;21.07;76.18;93675.95;1737957;81;21571;-53
2022/06/21 07:59:22;;;;;;;7.58;5.70;;;;;;;21.12;75.49;93671.53;1701233;83;21207;-52
2022/06/21 08:07:36;;;;;;;;;;;;;;;21.31;75.12;93684.06;1742349;81;20981;-55
2022/06/21 08:10:36;;;;;;;9.68;7.22;;;;;;;21.43;74.95;93691.56;1731294;81;20458;-51
2022/06/21 08:13:05;;;;;;;8.40;4.03;;;;;;;21.47;74.57;93680.81;1753274;80;21025;-49
2022/06/21 08:15:39;;;;;;;16.87;3.42;;;;;;;21.43;71.24;93697.16;1722840;82;21078;-50
2022/06/21 08:18:18;;;;;;;3.87;2.25;;;;;;;21.16;69.96;93698.53;1711905;83;21112;-52
2022/06/21 08:20:49;;;;;;;6.40;2.42;;;;;;;20.83;69.52;93711.16;1712030;81;21518;-52
2022/06/21 08:23:28;;;;;;;2.62;2.30;;;;;;;20.49;69.27;93706.69;1705003;83;21065;-54
2022/06/21 08:26:04;;;;;;;3.85;2.20;;;;;;;20.26;68.39;93712.56;1719756;80;21303;-51
2022/06/21 08:28:52;;;;;;;2.50;1.80;;;;;;;20.12;68.68;93705.44;1745288;80;21116;-58
2022/06/21 08:31:32;;;;;;;3.10;2.22;;;;;;;20.03;65.97;93708.66;1748634;81;21018;-55
2022/06/21 08:34:11;;;;;;;2.15;1.85;;;;;;;19.64;65.33;93714.08;1713180;81;21527;-53
2022/06/21 08:36:50;;;;;;;17.02;2.47;;;;;;;19.42;66.05;93728.35;1753205;80;21022;-56
2022/06/21 08:39:32;;;;;;;3.42;2.40;;;;;;;19.31;66.02;93713.16;1715880;83;21047;-53
2022/06/21 08:42:24;;;;;;;2.30;2.10;;;;;;;19.27;65.51;93726.66;1740193;81;21030;-56
2022/06/21 08:48:31;;;;;;;1.85;1.72;;;;;;;19.47;64.62;93735.11;1716023;81;21102;-52
2022/06/21 08:51:13;;;;;;;3.92;2.90;;;;;;;19.53;64.79;93732.36;1725253;80;21077;-55
2022/06/21 08:54:06;;;;;;;4.37;2.07;;;;;;;19.62;64.07;93743.78;1744421;81;21659;-51
2022/06/21 08:56:59;;;;;;;2.05;1.70;;;;;;;19.55;62.68;93744.41;1691479;82;21549;-53
2022/06/21 08:59:43;;;;;;;2.05;1.90;;;;;;;19.37;63.00;93744.50;1714790;82;21058;-60
2022/06/21 09:02:46;;;;;;;2.75;1.90;;;;;;;19.22;63.04;93753.22;1703079;83;21114;-53
2022/06/21 09:05:48;;;;;;;3.42;2.37;;;;;;;19.06;63.25;93753.52;1660795;85;21058;-53
2022/06/21 09:09:08;;;;;;;4.42;2.33;;;;;;;18.89;63.09;93768.29;1684291;84;21095;-53
2022/06/21 09:12:09;;;;;;;2.40;2.20;;;;;;;18.66;63.71;93760.03;1697687;83;21301;-53
2022/06/21 09:14:47;;;;;;;3.22;2.40;;;;;;;18.60;64.72;93760.74;1685030;83;21038;-53
2022/06/21 09:17:44;;;;;;;3.52;2.58;;;;;;;18.62;64.67;93752.61;1701669;82;21054;-53
2022/06/21 09:20:33;;;;;;;5.55;2.30;;;;;;;18.63;64.28;93771.49;1670618;83;21624;-54
2022/06/21 09:23:10;;;;;;;2.67;2.17;;;;;;;18.54;64.62;93768.41;1696895;82;21035;-55
2022/06/21 09:25:47;;;;;;;2.58;2.37;;;;;;;18.45;64.69;93777.09;1699671;83;21938;-52
2022/06/21 09:28:40;;;;;;;5.05;2.67;;;;;;;18.40;65.36;93775.13;1703843;83;21030;-55
2022/06/21 09:31:44;;;;;;;2.87;2.45;;;;;;;18.49;65.07;93780.34;1705985;82;21089;-52
2022/06/21 09:34:28;;;;;;;3.12;2.42;;;;;;;18.64;64.68;93776.52;1703511;83;21058;-53
2022/06/21 09:37:29;;;;;;;6.35;2.72;;;;;;;18.84;64.05;93788.59;1698920;83;21163;-53
2022/06/21 09:40:22;;;;;;;4.70;2.30;;;;;;;18.99;63.07;93781.97;1710707;83;21780;-53
2022/06/21 09:42:58;;;;;;;2.60;2.40;;;;;;;19.13;61.96;93775.22;1697486;83;22428;-55
2022/06/21 09:45:37;;;;;;;2.60;2.40;;;;;;;19.17;62.13;93788.91;1710770;82;21222;-51
2022/06/21 09:48:16;;;;;;;2.75;2.40;;;;;;;19.23;61.76;93795.16;1666063;84;21046;-52
2022/06/21 09:51:18;;;;;;;2.90;2.17;;;;;;;19.20;61.07;93812.30;1682046;83;21557;-52
2022/06/21 09:54:07;;;;;;;3.65;2.55;;;;;;;19.23;61.90;93809.84;1699789;83;21980;-52
2022/06/21 09:56:55;;;;;;;2.55;2.35;;;;;;;19.24;61.06;93801.62;1661642;83;21050;-52
2022/06/21 09:59:48;;;;;;;9.08;3.10;;;;;;;19.29;60.62;93792.42;1711715;83;21097;-54
2022/06/21 10:02:21;;;;;;;4.92;2.45;;;;;;;19.41;60.64;93782.61;1712656;82;21073;-53
2022/06/21 10:05:04;;;;;;;2.92;2.50;;;;;;;19.57;59.71;93788.61;1694441;83;21103;-52
2022/06/21 10:08:04;;;;;;;3.47;2.50;;;;;;;19.64;59.10;93783.84;1688882;83;21930;-51
2022/06/21 10:10:46;;;;;;;4.10;2.52;;;;;;;19.72;58.35;93783.33;1710073;81;21552;-56
2022/06/21 10:13:52;;;;;;;4.05;2.85;;;;;;;19.78;58.98;93789.58;1678354;83;21074;-52
2022/06/21 10:16:28;;;;;;;3.80;2.65;;;;;;;19.83;59.06;93775.44;1655618;86;21093;-55
2022/06/21 10:19:21;;;;;;;2.40;2.05;;;;;;;20.02;59.58;93779.75;1625439;86;21136;-50
2022/06/21 10:22:02;;;;;;;3.50;2.47;;;;;;;20.25;59.32;93785.09;1690450;82;21281;-54
2022/06/21 10:24:55;;;;;;;2.75;2.20;;;;;;;20.43;58.78;93786.45;1696953;82;21139;-51
2022/06/21 10:28:13;;;;;;;5.05;2.72;;;;;;;20.55;57.51;93770.23;1721392;83;21094;-52
2022/06/21 10:31:01;;;;;;;4.37;2.87;;;;;;;20.57;57.46;93761.41;1658812;86;21193;-52
2022/06/21 10:33:56;;;;;;;5.15;2.37;;;;;;;20.67;58.06;93756.92;1544948;89;21117;-54
2022/06/21 10:37:01;;;;;;;5.37;2.80;;;;;;;20.82;57.21;93753.59;1708753;83;21218;-50
2022/06/21 10:40:10;;;;;;;2.87;2.33;;;;;;;20.96;56.44;93756.53;1652856;86;21797;-52
2022/06/21 10:43:02;;;;;;;5.47;3.20;;;;;;;21.03;58.15;93740.49;1678413;82;21031;-51
2022/06/21 10:45:40;;;;;;;3.62;2.85;;;;;;;21.53;57.29;93738.81;1697909;82;21124;-49
2022/06/21 10:48:42;;;;;;;4.78;2.95;;;;;;;22.16;56.99;93732.91;1713898;81;21000;-51
2022/06/21 10:51:20;;;;;;;3.70;2.52;;;;;;;22.71;53.79;93749.75;1692056;83;21145;-51
2022/06/21 10:54:15;;;;;;;3.35;2.77;;;;;;;23.06;53.45;93746.23;1693831;83;21083;-51
2022/06/21 11:02:57;;;;;;;4.35;2.77;;;;;;;23.73;50.82;93726.19;1644894;84;21558;-50
2022/06/21 11:05:54;;;;;;;4.22;3.05;;;;;;;23.59;50.06;93724.08;1675768;84;21912;-52
2022/06/21 11:08:50;;;;;;;4.53;2.95;;;;;;;23.19;50.86;93725.11;1656539;86;21104;-50
2022/06/21 11:11:55;;;;;;;5.10;2.60;;;;;;;22.87;51.45;93722.55;1673630;85;21075;-51
2022/06/21 11:14:42;;;;;;;4.42;2.50;;;;;;;22.89;52.08;93724.16;1681935;82;21089;-50
2022/06/21 11:17:33;;;;;;;5.75;2.62;;;;;;;23.03;53.28;93726.30;1704690;83;21093;-50
2022/06/21 11:20:15;;;;;;;2.65;2.45;;;;;;;23.45;51.84;93717.86;1692370;81;21169;-48
2022/06/21 11:22:48;;;;;;;4.23;2.23;;;;;;;23.60;50.61;93726.98;1717642;83;20967;-50
2022/06/21 11:25:24;;;;;;;3.65;2.40;;;;;;;23.35;49.82;93721.08;1753251;81;21550;-51
2022/06/21 11:28:16;;;;;;;2.83;2.42;;;;;;;22.95;49.94;93738.13;1747470;82;21069;-50
2022/06/21 11:31:04;;;;;;;2.40;2.20;;;;;;;23.16;49.86;93739.48;1747480;81;21104;-51
2022/06/21 11:33:45;;;;;;;4.53;2.65;;;;;;;23.59;50.20;93734.64;1694311;83;21809;-52
2022/06/21 11:36:33;;;;;;;3.55;2.17;;;;;;;24.25;51.03;93739.64;1709084;82;21005;-53
2022/06/21 11:39:34;;;;;;;2.98;2.27;;;;;;;25.00;48.95;93731.23;1697997;82;21106;-53
2022/06/21 11:42:26;;;;;;;3.27;2.40;;;;;;;25.68;44.63;93725.52;1700785;82;21090;-52
2022/06/21 11:45:34;;;;;;;2.75;2.22;;;;;;;26.16;44.46;93712.23;1690651;83;21105;-52
2022/06/21 11:48:42;;;;;;;2.60;2.25;;;;;;;26.61;43.34;93723.25;1714744;82;21123;-54
2022/06/21 11:51:30;;;;;;;5.35;2.62;;;;;;;27.28;42.16;93709.22;1700117;83;22187;-53
2022/06/21 11:54:20;;;;;;;2.52;2.02;;;;;;;27.65;41.36;93712.28;1700952;82;21074;-49
2022/06/21 11:57:05;;;;;;;3.47;2.33;;;;;;;27.77;40.61;93718.20;1713470;81;21117;-48
2022/06/21 12:00:00;;;;;;;3.42;2.45;;;;;;;27.86;40.41;93706.95;1756728;80;21191;-52
2022/06/21 12:02:55;;;;;;;2.60;1.98;;;;;;;28.07;41.20;93721.37;1733055;81;21832;-50
2022/06/21 12:05:28;;;;;;;2.90;2.30;;;;;;;28.45;39.45;93712.48;1719892;82;21075;-52
2022/06/21 12:08:08;;;;;;;2.65;2.00;;;;;;;28.58;38.06;93702.16;1732936;81;21183;-50
2022/06/21 12:10:54;;;;;;;4.35;1.62;;;;;;;28.43;38.99;93701.66;1725644;82;21061;-49
2022/06/21 12:14:02;;;;;;;3.92;1.67;;;;;;;28.20;38.63;93704.05;1735605;81;21475;-49
2022/06/21 12:16:52;;;;;;;2.47;1.90;;;;;;;28.51;38.62;93706.52;1663054;83;21981;-48
2022/06/21 12:19:24;;;;;;;2.80;1.75;;;;;;;28.84;39.02;93707.03;1725697;82;21007;-49
2022/06/21 12:22:18;;;;;;;2.00;1.55;;;;;;;29.36;37.83;93712.48;1719573;82;21122;-48
2022/06/21 12:24:46;;;;;;;2.50;2.10;;;;;;;29.79;37.62;93716.39;1739396;81;21050;-50
2022/06/21 12:27:13;;;;;;;2.65;1.87;;;;;;;30.06;35.27;93713.48;1695530;83;21081;-50
2022/06/21 12:29:44;;;;;;;2.30;1.65;;;;;;;30.25;35.82;93721.95;1748144;80;21019;-48
2022/06/21 12:32:23;;;;;;;4.58;1.37;;;;;;;30.55;36.99;93718.45;1680695;83;21522;-48
2022/06/21 12:35:06;;;;;;;1.62;1.45;;;;;;;30.57;34.95;93707.23;1711775;81;21070;-50
2022/06/21 12:37:40;;;;;;;2.05;1.47;;;;;;;30.58;34.03;93701.66;1745959;80;21029;-52
2022/06/21 12:40:39;;;;;;;2.20;1.55;;;;;;;30.51;34.44;93705.39;1714007;83;21023;-55
2022/06/21 12:43:35;;;;;;;5.25;1.57;;;;;;;30.52;33.94;93705.47;1742671;81;21121;-53
2022/06/21 12:46:24;;;;;;;2.35;1.60;;;;;;;30.61;33.18;93688.42;1735874;81;21094;-53
2022/06/21 12:49:34;;;;;;;1.77;1.40;;;;;;;30.59;34.53;93692.55;1717524;82;21042;-54